createdAt,value
2019-05-22T00:02:37.054Z,32.90
2019-05-22T00:05:33.873Z,33.00
2019-05-22T00:08:26.656Z,33.00
2019-05-22T00:11:20.236Z,33.00
2019-05-22T00:14:14.648Z,33.00
2019-05-22T00:17:08.547Z,33.00
2019-05-22T00:20:01.555Z,33.00
2019-05-22T00:22:56.068Z,33.00
2019-05-22T00:25:48.585Z,33.00
2019-05-22T00:28:41.630Z,33.00
2019-05-22T00:31:34.075Z,33.00
2019-05-22T00:34:27.148Z,33.00
2019-05-22T00:37:19.776Z,33.00
2019-05-22T00:40:16.222Z,33.00
2019-05-22T00:43:14.032Z,33.00
2019-05-22T00:46:06.168Z,33.00
2019-05-22T00:48:58.738Z,33.00
2019-05-22T00:52:04.967Z,33.00
2019-05-22T00:55:10.600Z,33.00
2019-05-22T00:58:09.802Z,33.00
2019-05-22T01:01:05.161Z,33.00
2019-05-22T01:03:59.081Z,33.00
2019-05-22T01:06:53.223Z,33.00
2019-05-22T01:09:45.379Z,33.00
2019-05-22T01:12:44.122Z,33.00
2019-05-22T01:15:36.857Z,33.00
2019-05-22T01:18:29.720Z,33.00
2019-05-22T01:21:26.013Z,33.00
2019-05-22T01:24:18.187Z,33.00
2019-05-22T01:27:12.313Z,33.00
2019-05-22T01:30:06.738Z,33.00
2019-05-22T01:33:02.754Z,33.00
2019-05-22T01:36:12.410Z,33.00
2019-05-22T01:39:16.534Z,33.00
2019-05-22T01:42:11.536Z,33.00
2019-05-22T01:45:06.857Z,33.00
2019-05-22T01:48:06.540Z,33.00
2019-05-22T01:50:59.784Z,33.00
2019-05-22T01:53:52.912Z,33.00
2019-05-22T01:56:46.933Z,33.00
2019-05-22T01:59:40.260Z,33.00
2019-05-22T02:02:34.362Z,33.00
2019-05-22T02:05:27.850Z,33.00
2019-05-22T02:08:21.751Z,33.00
2019-05-22T02:11:17.381Z,33.00
2019-05-22T02:14:13.347Z,33.00
2019-05-22T02:17:07.120Z,33.00
2019-05-22T02:20:01.031Z,33.00
2019-05-22T02:22:55.673Z,33.00
2019-05-22T02:25:49.803Z,33.00
2019-05-22T02:28:45.000Z,33.00
2019-05-22T02:31:39.937Z,33.00
2019-05-22T02:34:33.125Z,33.00
2019-05-22T02:37:28.339Z,33.00
2019-05-22T02:40:28.314Z,33.00
2019-05-22T02:43:22.443Z,33.00
2019-05-22T02:46:16.591Z,33.00
2019-05-22T02:49:11.105Z,33.00
2019-05-22T02:52:04.761Z,33.00
2019-05-22T02:54:58.460Z,33.00
2019-05-22T02:57:51.294Z,33.00
2019-05-22T03:00:54.453Z,33.00
2019-05-22T03:03:48.473Z,33.00
2019-05-22T03:06:41.235Z,33.00
2019-05-22T03:09:34.679Z,33.00
2019-05-22T03:12:28.251Z,33.00
2019-05-22T03:15:22.875Z,33.00
2019-05-22T03:18:16.064Z,33.00
2019-05-22T03:21:10.042Z,33.00
2019-05-22T03:24:03.316Z,33.00
2019-05-22T03:26:56.857Z,33.00
2019-05-22T03:29:55.190Z,33.10
2019-05-22T03:32:48.657Z,33.10
2019-05-22T03:35:47.358Z,33.00
2019-05-22T03:38:40.231Z,33.10
2019-05-22T03:41:33.333Z,33.10
2019-05-22T03:44:26.405Z,33.10
2019-05-22T03:47:19.551Z,33.10
2019-05-22T03:50:12.860Z,33.10
2019-05-22T03:53:11.378Z,33.10
2019-05-22T03:56:04.033Z,33.10
2019-05-22T03:58:57.336Z,33.10
2019-05-22T04:01:49.935Z,33.10
2019-05-22T04:04:45.317Z,33.10
2019-05-22T04:07:37.970Z,33.10
2019-05-22T04:10:31.890Z,33.10
2019-05-22T04:13:24.452Z,33.10
2019-05-22T04:16:20.288Z,33.10
2019-05-22T04:19:13.086Z,32.60
2019-05-22T04:22:07.623Z,33.10
2019-05-22T04:25:00.385Z,33.10
2019-05-22T04:27:53.664Z,33.10
2019-05-22T04:30:46.468Z,33.10
2019-05-22T04:33:39.572Z,33.10
2019-05-22T04:36:33.270Z,33.10
2019-05-22T04:39:27.114Z,33.10
2019-05-22T04:42:20.192Z,33.10
2019-05-22T04:45:17.389Z,33.10
2019-05-22T04:48:10.617Z,33.10
2019-05-22T04:51:07.136Z,32.30
2019-05-22T04:54:00.442Z,31.50
2019-05-22T04:56:53.602Z,30.70
2019-05-22T04:59:48.813Z,30.60
2019-05-22T05:02:43.130Z,30.80
2019-05-22T05:05:43.674Z,30.80
2019-05-22T05:08:41.715Z,30.70
2019-05-22T05:11:46.846Z,30.50
2019-05-22T05:14:46.839Z,30.20
2019-05-22T05:17:44.868Z,29.20
2019-05-22T05:20:39.406Z,28.50
2019-05-22T05:23:34.697Z,28.10
2019-05-22T05:26:34.785Z,27.80
2019-05-22T05:29:29.991Z,27.50
2019-05-22T05:35:51.893Z,27.20
2019-05-22T05:38:58.243Z,27.00
2019-05-22T05:41:54.814Z,27.00
2019-05-22T05:44:49.054Z,26.70
2019-05-22T05:47:56.575Z,26.60
2019-05-22T05:51:10.754Z,26.60
2019-05-22T05:54:16.729Z,26.50
2019-05-22T05:57:34.578Z,26.30
2019-05-22T06:00:30.290Z,26.20
2019-05-22T06:03:33.881Z,26.10
2019-05-22T06:06:51.534Z,26.10
2019-05-22T06:09:56.065Z,26.10
2019-05-22T06:12:57.565Z,25.90
2019-05-22T06:16:28.285Z,25.80
2019-05-22T06:19:21.286Z,25.80
2019-05-22T06:25:58.363Z,25.60
2019-05-22T06:28:53.768Z,25.60
2019-05-22T06:32:10.904Z,25.50
2019-05-22T06:35:07.737Z,25.50
2019-05-22T06:38:05.875Z,25.40
2019-05-22T06:40:59.984Z,25.40
2019-05-22T06:44:11.084Z,25.20
2019-05-22T06:47:11.281Z,25.10
2019-05-22T06:50:06.584Z,25.10
2019-05-22T06:53:09.782Z,25.00
2019-05-22T06:56:08.015Z,25.10
2019-05-22T06:59:12.070Z,25.10
2019-05-22T07:02:11.780Z,25.10
2019-05-22T07:05:09.053Z,25.10
2019-05-22T07:08:05.872Z,25.10
2019-05-22T07:11:02.289Z,25.20
2019-05-22T07:14:00.489Z,25.10
2019-05-22T07:16:54.157Z,25.10
2019-05-22T07:19:55.637Z,25.00
2019-05-22T07:22:50.906Z,24.90
2019-05-22T07:25:47.061Z,24.90
2019-05-22T07:28:45.559Z,24.80
2019-05-22T07:31:40.013Z,24.90
2019-05-22T07:34:35.186Z,24.80
2019-05-22T07:37:32.710Z,24.70
2019-05-22T07:40:28.246Z,24.90
2019-05-22T07:43:24.770Z,24.90
2019-05-22T07:46:30.521Z,24.90
2019-05-22T07:49:24.669Z,24.80
2019-05-22T07:52:23.533Z,24.80
2019-05-22T07:55:19.497Z,24.70
2019-05-22T07:58:16.831Z,24.60
2019-05-22T08:01:12.670Z,24.60
2019-05-22T08:04:09.864Z,24.50
2019-05-22T08:07:07.754Z,24.50
2019-05-22T08:10:05.673Z,23.70
2019-05-22T08:13:02.785Z,24.40
2019-05-22T08:15:56.900Z,24.40
2019-05-22T08:18:53.390Z,24.30
2019-05-22T08:21:49.926Z,24.30
2019-05-22T08:24:50.899Z,24.30
2019-05-22T08:27:47.063Z,24.20
2019-05-22T08:30:43.177Z,24.20
2019-05-22T08:33:38.815Z,24.20
2019-05-22T08:36:33.390Z,24.20
2019-05-22T08:39:27.721Z,24.00
2019-05-22T08:42:24.524Z,24.10
2019-05-22T08:45:19.234Z,24.00
2019-05-22T08:48:15.113Z,24.10
2019-05-22T08:51:12.724Z,24.00
2019-05-22T08:54:10.331Z,23.90
2019-05-22T08:57:06.138Z,23.90
2019-05-22T09:00:00.952Z,23.90
2019-05-22T09:02:55.658Z,23.80
2019-05-22T09:05:53.428Z,23.90
2019-05-22T09:08:50.545Z,23.90
2019-05-22T09:11:47.850Z,23.80
2019-05-22T09:14:43.126Z,24.60
2019-05-22T09:17:44.842Z,25.30
2019-05-22T09:20:49.385Z,25.80
2019-05-22T09:23:38.077Z,26.20
2019-05-22T09:26:31.980Z,26.50
2019-05-22T09:29:25.495Z,26.70
2019-05-22T09:32:20.284Z,27.00
2019-05-22T09:35:14.890Z,27.20
2019-05-22T09:38:10.047Z,27.00
2019-05-22T09:41:04.597Z,26.40
2019-05-22T09:44:01.483Z,26.00
2019-05-22T09:46:55.726Z,25.70
2019-05-22T09:49:59.811Z,25.50
2019-05-22T09:52:57.678Z,25.30
2019-05-22T09:55:49.673Z,25.00
2019-05-22T09:58:42.925Z,25.00
2019-05-22T10:01:42.030Z,24.90
2019-05-22T10:04:35.860Z,24.90
2019-05-22T10:07:29.597Z,24.90
2019-05-22T10:10:23.183Z,24.90
2019-05-22T10:13:17.433Z,24.80
2019-05-22T10:16:13.255Z,24.90
2019-05-22T10:19:08.533Z,24.90
2019-05-22T10:22:02.095Z,24.90
2019-05-22T10:25:14.089Z,24.90
2019-05-22T10:27:52.071Z,25.10
2019-05-22T10:30:49.060Z,25.30
2019-05-22T10:33:44.737Z,25.20
2019-05-22T10:36:43.218Z,25.00
2019-05-22T10:39:36.322Z,24.80
2019-05-22T10:42:31.739Z,24.90
2019-05-22T10:45:26.916Z,25.20
2019-05-22T10:48:20.394Z,25.10
2019-05-22T10:51:13.986Z,25.00
2019-05-22T10:54:11.784Z,24.90
2019-05-22T10:57:06.978Z,25.40
2019-05-22T11:00:01.420Z,26.00
2019-05-22T11:02:56.239Z,26.40
2019-05-22T11:06:06.424Z,26.70
2019-05-22T11:08:55.743Z,26.90
2019-05-22T11:11:51.433Z,27.20
2019-05-22T11:14:49.325Z,27.40
2019-05-22T11:17:46.348Z,27.50
2019-05-22T11:20:42.462Z,27.70
2019-05-22T11:23:50.344Z,27.80
2019-05-22T11:26:32.068Z,27.90
2019-05-22T11:29:27.642Z,28.00
2019-05-22T11:32:22.666Z,28.10
2019-05-22T11:35:18.551Z,28.20
2019-05-22T11:38:14.444Z,28.30
2019-05-22T11:41:10.640Z,28.40
2019-05-22T11:44:07.890Z,28.50
2019-05-22T11:47:03.031Z,28.50
2019-05-22T11:49:59.670Z,28.60
2019-05-22T11:52:56.936Z,28.70
2019-05-22T11:55:57.401Z,28.70
2019-05-22T11:58:53.077Z,28.80
2019-05-22T12:01:50.769Z,28.80
2019-05-22T12:04:48.986Z,28.90
2019-05-22T12:07:45.602Z,28.90
2019-05-22T12:10:41.872Z,29.00
2019-05-22T12:13:40.514Z,29.10
2019-05-22T12:16:34.654Z,29.10
2019-05-22T12:19:28.459Z,29.10
2019-05-22T12:22:27.183Z,29.20
2019-05-22T12:25:24.718Z,29.20
2019-05-22T12:28:22.632Z,29.30
2019-05-22T12:31:19.875Z,29.30
2019-05-22T12:34:15.152Z,29.30
2019-05-22T12:37:11.604Z,29.40
2019-05-22T12:40:08.329Z,29.40
2019-05-22T12:43:07.252Z,29.50
2019-05-22T12:46:01.678Z,29.50
2019-05-22T12:48:59.717Z,29.60
2019-05-22T12:51:54.571Z,29.60
2019-05-22T12:54:52.413Z,29.60
2019-05-22T12:57:44.096Z,29.70
2019-05-22T13:00:37.697Z,29.70
2019-05-22T13:03:31.291Z,29.70
2019-05-22T13:06:24.583Z,29.80
2019-05-22T13:09:18.198Z,29.80
2019-05-22T13:12:16.937Z,29.80
2019-05-22T13:15:14.749Z,29.80
2019-05-22T13:18:19.561Z,29.90
2019-05-22T13:21:16.057Z,29.90
2019-05-22T13:24:18.647Z,30.00
2019-05-22T13:27:12.688Z,30.00
2019-05-22T13:30:06.963Z,30.00
2019-05-22T13:33:01.363Z,30.00
2019-05-22T13:35:56.231Z,30.10
2019-05-22T13:38:51.053Z,30.10
2019-05-22T13:41:44.537Z,30.10
2019-05-22T13:44:38.190Z,30.10
2019-05-22T13:47:32.075Z,30.20
2019-05-22T13:50:28.866Z,30.20
2019-05-22T13:53:22.726Z,30.20
2019-05-22T13:56:16.287Z,30.20
2019-05-22T13:59:10.754Z,30.30
2019-05-22T14:02:04.464Z,30.30
2019-05-22T14:04:58.790Z,30.30
2019-05-22T14:07:54.353Z,30.30
2019-05-22T14:10:50.057Z,30.40
2019-05-22T14:13:43.857Z,30.00
2019-05-22T14:16:48.057Z,30.40
2019-05-22T14:19:32.369Z,30.40
2019-05-22T14:22:26.375Z,30.50
2019-05-22T14:25:21.784Z,30.50
2019-05-22T14:28:16.707Z,30.50
2019-05-22T14:31:10.244Z,30.50
2019-05-22T14:34:05.624Z,30.50
2019-05-22T14:36:59.056Z,30.60
2019-05-22T14:39:53.351Z,30.60
2019-05-22T14:42:46.170Z,30.60
2019-05-22T14:45:40.986Z,30.70
2019-05-22T14:48:35.757Z,30.60
2019-05-22T14:51:29.554Z,30.60
2019-05-22T14:54:23.420Z,30.70
2019-05-22T14:57:16.348Z,30.70
2019-05-22T15:00:11.140Z,30.70
2019-05-22T15:03:04.905Z,30.70
2019-05-22T15:05:58.026Z,30.70
2019-05-22T15:08:52.070Z,30.80
2019-05-22T15:11:45.074Z,30.80
2019-05-22T15:14:38.572Z,30.80
2019-05-22T15:17:33.189Z,30.80
2019-05-22T15:20:29.603Z,30.80
2019-05-22T15:23:23.155Z,30.90
2019-05-22T15:26:15.933Z,30.90
2019-05-22T15:29:09.312Z,30.90
2019-05-22T15:32:02.516Z,30.90
2019-05-22T15:34:57.331Z,30.90
2019-05-22T15:37:51.321Z,30.90
2019-05-22T15:40:44.516Z,31.00
2019-05-22T15:43:38.016Z,31.00
2019-05-22T15:46:32.389Z,31.00
2019-05-22T15:49:26.282Z,31.00
2019-05-22T15:52:19.306Z,31.00
2019-05-22T15:55:14.247Z,31.00
2019-05-22T15:58:08.145Z,31.00
2019-05-22T16:01:03.194Z,31.00
2019-05-22T16:03:57.528Z,31.00
2019-05-22T16:06:51.076Z,31.10
2019-05-22T16:09:45.765Z,31.10
2019-05-22T16:12:40.423Z,31.10
2019-05-22T16:15:35.616Z,31.10
2019-05-22T16:18:36.506Z,31.20
2019-05-22T16:21:30.106Z,31.20
2019-05-22T16:24:23.505Z,31.20
2019-05-22T16:27:16.769Z,31.20
2019-05-22T16:30:10.590Z,31.20
2019-05-22T16:33:04.861Z,31.20
2019-05-22T16:35:59.393Z,31.20
2019-05-22T16:38:53.665Z,31.20
2019-05-22T16:41:47.507Z,31.20
2019-05-22T16:44:44.785Z,31.30
2019-05-22T16:47:38.046Z,31.30
2019-05-22T16:50:33.107Z,31.30
2019-05-22T16:53:29.035Z,31.30
2019-05-22T16:56:22.150Z,31.30
2019-05-22T16:59:15.637Z,31.30
2019-05-22T17:02:08.784Z,31.40
2019-05-22T17:05:02.397Z,31.40
2019-05-22T17:07:55.885Z,31.40
2019-05-22T17:10:51.973Z,31.40
2019-05-22T17:13:45.119Z,31.40
2019-05-22T17:16:41.026Z,31.40
2019-05-22T17:19:36.241Z,31.40
2019-05-22T17:22:31.603Z,31.40
2019-05-22T17:25:26.681Z,31.40
2019-05-22T17:28:20.756Z,31.40
2019-05-22T17:31:14.720Z,31.50
2019-05-22T17:34:09.409Z,31.50
2019-05-22T17:37:03.325Z,31.50
2019-05-22T17:39:57.556Z,31.50
2019-05-22T17:42:52.130Z,31.50
2019-05-22T17:45:47.554Z,31.50
2019-05-22T17:48:42.027Z,31.50
2019-05-22T17:51:35.849Z,31.50
2019-05-22T17:54:30.201Z,31.50
2019-05-22T17:57:24.369Z,31.50
2019-05-22T18:00:39.922Z,31.60
2019-05-22T18:03:33.974Z,31.60
2019-05-22T18:06:27.450Z,31.60
2019-05-22T18:09:21.424Z,31.60
2019-05-22T18:12:16.293Z,31.60
2019-05-22T18:15:11.049Z,31.60
2019-05-22T18:18:05.417Z,31.60
2019-05-22T18:20:59.644Z,31.70
2019-05-22T18:23:52.936Z,31.60
2019-05-22T18:26:46.072Z,31.70
2019-05-22T18:29:39.207Z,31.70
2019-05-22T18:32:32.544Z,31.70
2019-05-22T18:35:25.599Z,31.70
2019-05-22T18:38:18.622Z,31.70
2019-05-22T18:41:12.094Z,31.70
2019-05-22T18:44:05.870Z,31.70
2019-05-22T18:46:59.056Z,31.70
2019-05-22T18:49:52.198Z,31.70
2019-05-22T18:52:47.130Z,31.70
2019-05-22T18:55:39.881Z,31.70
2019-05-22T18:58:33.401Z,31.80
2019-05-22T19:01:26.994Z,31.80
2019-05-22T19:04:20.406Z,31.80
2019-05-22T19:07:14.410Z,31.80
2019-05-22T19:10:11.039Z,31.80
2019-05-22T19:13:05.901Z,31.80
2019-05-22T19:15:59.385Z,31.80
2019-05-22T19:18:52.596Z,31.80
2019-05-22T19:21:45.800Z,31.80
2019-05-22T19:24:38.745Z,31.80
2019-05-22T19:27:32.409Z,31.90
2019-05-22T19:30:27.623Z,31.90
2019-05-22T19:33:20.600Z,31.90
2019-05-22T19:36:13.105Z,31.90
2019-05-22T19:39:06.195Z,31.90
2019-05-22T19:42:03.805Z,31.90
2019-05-22T19:44:52.789Z,31.90
2019-05-22T19:47:49.505Z,31.90
2019-05-22T19:50:44.074Z,31.90
2019-05-22T19:53:39.065Z,31.90
2019-05-22T19:56:33.919Z,31.90
2019-05-22T19:59:27.852Z,31.90
2019-05-22T20:02:23.359Z,31.90
2019-05-22T20:05:16.875Z,31.90
2019-05-22T20:08:10.152Z,31.90
2019-05-22T20:11:03.459Z,32.00
2019-05-22T20:13:57.102Z,32.00
2019-05-22T20:16:50.752Z,32.00
2019-05-22T20:19:44.055Z,32.00
2019-05-22T20:22:38.724Z,32.00
2019-05-22T20:25:33.698Z,32.00
2019-05-22T20:28:27.814Z,32.00
2019-05-22T20:31:21.849Z,32.00
2019-05-22T20:34:14.891Z,32.10
2019-05-22T20:37:08.511Z,32.10
2019-05-22T20:40:02.128Z,32.10
2019-05-22T20:42:55.907Z,32.10
2019-05-22T20:45:50.296Z,32.10
2019-05-22T20:48:44.267Z,32.10
2019-05-22T20:51:37.700Z,32.10
2019-05-22T20:54:31.794Z,32.10
2019-05-22T20:57:27.091Z,32.10
2019-05-22T21:00:21.307Z,32.10
2019-05-22T21:03:14.939Z,32.10
2019-05-22T21:06:09.767Z,32.10
2019-05-22T21:09:02.987Z,32.10
2019-05-22T21:11:56.402Z,32.10
2019-05-22T21:14:49.497Z,32.10
2019-05-22T21:17:42.731Z,32.10
2019-05-22T21:20:35.410Z,32.10
2019-05-22T21:23:30.728Z,32.10
2019-05-22T21:26:24.180Z,32.20
2019-05-22T21:29:17.099Z,32.20
2019-05-22T21:32:10.640Z,32.20
2019-05-22T21:35:04.089Z,32.20
2019-05-22T21:37:57.828Z,32.20
2019-05-22T21:40:51.786Z,32.20
2019-05-22T21:43:45.422Z,32.20
2019-05-22T21:46:39.143Z,32.20
2019-05-22T21:49:32.443Z,32.20
2019-05-22T21:52:25.860Z,32.20
2019-05-22T21:55:19.661Z,32.20
2019-05-22T21:58:13.586Z,32.20
2019-05-22T22:01:23.290Z,32.20
2019-05-22T22:04:24.104Z,32.30
2019-05-22T22:07:17.890Z,32.20
2019-05-22T22:10:11.283Z,32.30
2019-05-22T22:13:07.634Z,32.30
2019-05-22T22:15:58.830Z,32.30
2019-05-22T22:18:52.308Z,32.30
2019-05-22T22:21:45.955Z,32.30
2019-05-22T22:24:39.177Z,32.30
2019-05-22T22:27:34.030Z,32.30
2019-05-22T22:30:31.942Z,32.30
2019-05-22T22:33:27.778Z,32.30
2019-05-22T22:36:20.961Z,32.30
2019-05-22T22:39:16.104Z,32.30
2019-05-22T22:42:11.182Z,32.30
2019-05-22T22:45:06.356Z,32.30
2019-05-22T22:47:59.821Z,32.30
2019-05-22T22:50:54.199Z,32.30
2019-05-22T22:53:47.504Z,32.30
2019-05-22T22:56:41.057Z,32.30
2019-05-22T22:59:35.771Z,32.30
2019-05-22T23:02:31.842Z,32.30
2019-05-22T23:05:26.167Z,32.40
2019-05-22T23:08:21.377Z,32.30
2019-05-22T23:11:14.920Z,32.40
2019-05-22T23:14:09.258Z,32.40
2019-05-22T23:17:02.204Z,32.40
2019-05-22T23:19:53.248Z,32.40
2019-05-22T23:22:45.012Z,32.40
2019-05-22T23:25:38.523Z,32.40
2019-05-22T23:28:34.978Z,32.40
2019-05-22T23:31:27.556Z,32.40
2019-05-22T23:34:20.125Z,32.40
2019-05-22T23:37:14.356Z,32.40
2019-05-22T23:40:08.179Z,32.40
2019-05-22T23:43:01.954Z,32.40
2019-05-22T23:45:55.797Z,32.40
2019-05-22T23:48:49.296Z,32.40
2019-05-22T23:51:42.051Z,32.50
2019-05-22T23:54:34.980Z,32.50
2019-05-22T23:57:28.075Z,32.50
